sensor_id;sensor_type;location;lat;lon;timestamp;temperature;humidity
32173;DHT22;18679;45.190;5.722;2022-12-29T00:02:40;9.50;63.80
32173;DHT22;18679;45.190;5.722;2022-12-29T00:05:41;9.40;63.90
32173;DHT22;18679;45.190;5.722;2022-12-29T00:08:42;9.40;64.00
32173;DHT22;18679;45.190;5.722;2022-12-29T00:11:43;9.40;64.00
32173;DHT22;18679;45.190;5.722;2022-12-29T00:14:44;9.30;64.10
32173;DHT22;18679;45.190;5.722;2022-12-29T00:18:04;9.30;64.30
32173;DHT22;18679;45.190;5.722;2022-12-29T00:21:04;9.20;64.30
32173;DHT22;18679;45.190;5.722;2022-12-29T00:24:24;9.20;64.40
32173;DHT22;18679;45.190;5.722;2022-12-29T00:27:29;9.10;64.50
32173;DHT22;18679;45.190;5.722;2022-12-29T00:30:49;9.10;64.70
32173;DHT22;18679;45.190;5.722;2022-12-29T00:34:11;9.10;65.60
32173;DHT22;18679;45.190;5.722;2022-12-29T00:37:30;9.00;64.90
32173;DHT22;18679;45.190;5.722;2022-12-29T00:40:50;9.00;64.90
32173;DHT22;18679;45.190;5.722;2022-12-29T00:44:11;9.00;65.00
32173;DHT22;18679;45.190;5.722;2022-12-29T00:47:13;9.00;65.10
32173;DHT22;18679;45.190;5.722;2022-12-29T00:50:14;9.00;64.90
32173;DHT22;18679;45.190;5.722;2022-12-29T00:53:14;9.10;64.90
32173;DHT22;18679;45.190;5.722;2022-12-29T00:56:15;9.10;64.80
32173;DHT22;18679;45.190;5.722;2022-12-29T00:59:17;9.10;64.60
32173;DHT22;18679;45.190;5.722;2022-12-29T01:02:19;9.10;64.50
32173;DHT22;18679;45.190;5.722;2022-12-29T01:05:21;9.10;64.50
32173;DHT22;18679;45.190;5.722;2022-12-29T01:08:22;9.10;64.40
32173;DHT22;18679;45.190;5.722;2022-12-29T01:11:22;9.10;64.40
32173;DHT22;18679;45.190;5.722;2022-12-29T01:14:23;9.10;64.40
32173;DHT22;18679;45.190;5.722;2022-12-29T01:17:24;9.10;64.40
32173;DHT22;18679;45.190;5.722;2022-12-29T01:20:27;9.10;64.40
32173;DHT22;18679;45.190;5.722;2022-12-29T01:23:30;9.10;64.50
32173;DHT22;18679;45.190;5.722;2022-12-29T01:26:31;9.10;64.50
32173;DHT22;18679;45.190;5.722;2022-12-29T01:29:33;9.10;64.60
32173;DHT22;18679;45.190;5.722;2022-12-29T01:32:34;9.00;64.60
32173;DHT22;18679;45.190;5.722;2022-12-29T01:35:34;9.00;64.70
32173;DHT22;18679;45.190;5.722;2022-12-29T01:38:36;9.00;64.70
32173;DHT22;18679;45.190;5.722;2022-12-29T01:41:37;9.00;64.80
32173;DHT22;18679;45.190;5.722;2022-12-29T01:47:58;8.90;64.90
32173;DHT22;18679;45.190;5.722;2022-12-29T01:51:01;8.80;64.80
32173;DHT22;18679;45.190;5.722;2022-12-29T01:54:07;8.90;65.90
32173;DHT22;18679;45.190;5.722;2022-12-29T01:57:13;8.90;65.00
32173;DHT22;18679;45.190;5.722;2022-12-29T02:00:16;8.80;65.00
32173;DHT22;18679;45.190;5.722;2022-12-29T02:03:19;8.90;65.00
32173;DHT22;18679;45.190;5.722;2022-12-29T02:06:27;8.90;64.80
32173;DHT22;18679;45.190;5.722;2022-12-29T02:09:28;8.90;64.80
32173;DHT22;18679;45.190;5.722;2022-12-29T02:12:29;8.90;64.70
32173;DHT22;18679;45.190;5.722;2022-12-29T02:15:59;8.90;64.70
32173;DHT22;18679;45.190;5.722;2022-12-29T02:42:22;9.20;63.70
32173;DHT22;18679;45.190;5.722;2022-12-29T02:49:43;9.30;63.40
32173;DHT22;18679;45.190;5.722;2022-12-29T02:52:21;9.40;63.10
32173;DHT22;18679;45.190;5.722;2022-12-29T02:55:27;9.40;63.00
32173;DHT22;18679;45.190;5.722;2022-12-29T02:58:28;9.40;62.60
32173;DHT22;18679;45.190;5.722;2022-12-29T03:11:49;9.40;62.30
32173;DHT22;18679;45.190;5.722;2022-12-29T03:15:16;9.30;62.10
32173;DHT22;18679;45.190;5.722;2022-12-29T03:19:05;9.30;62.00
32173;DHT22;18679;45.190;5.722;2022-12-29T03:22:11;9.20;62.00
32173;DHT22;18679;45.190;5.722;2022-12-29T03:25:51;9.20;62.10
32173;DHT22;18679;45.190;5.722;2022-12-29T03:28:55;9.20;62.00
32173;DHT22;18679;45.190;5.722;2022-12-29T03:32:01;9.20;62.00
32173;DHT22;18679;45.190;5.722;2022-12-29T03:35:05;9.20;62.10
32173;DHT22;18679;45.190;5.722;2022-12-29T03:41:40;9.30;62.00
32173;DHT22;18679;45.190;5.722;2022-12-29T03:44:44;9.40;61.90
32173;DHT22;18679;45.190;5.722;2022-12-29T03:47:47;9.40;61.80
32173;DHT22;18679;45.190;5.722;2022-12-29T03:50:48;9.50;61.80
32173;DHT22;18679;45.190;5.722;2022-12-29T03:53:49;9.50;61.40
32173;DHT22;18679;45.190;5.722;2022-12-29T03:56:50;9.60;61.30
32173;DHT22;18679;45.190;5.722;2022-12-29T03:59:58;9.60;61.00
32173;DHT22;18679;45.190;5.722;2022-12-29T04:02:59;9.60;60.70
32173;DHT22;18679;45.190;5.722;2022-12-29T04:06:00;9.70;60.70
32173;DHT22;18679;45.190;5.722;2022-12-29T04:09:04;9.70;60.30
32173;DHT22;18679;45.190;5.722;2022-12-29T04:12:09;9.70;60.10
32173;DHT22;18679;45.190;5.722;2022-12-29T04:15:10;9.70;59.90
32173;DHT22;18679;45.190;5.722;2022-12-29T04:18:12;9.70;59.90
32173;DHT22;18679;45.190;5.722;2022-12-29T04:21:13;9.70;59.70
32173;DHT22;18679;45.190;5.722;2022-12-29T04:24:16;9.70;59.80
32173;DHT22;18679;45.190;5.722;2022-12-29T04:27:17;9.70;59.90
32173;DHT22;18679;45.190;5.722;2022-12-29T04:30:39;9.70;59.70
32173;DHT22;18679;45.190;5.722;2022-12-29T04:33:48;9.70;59.50
32173;DHT22;18679;45.190;5.722;2022-12-29T04:36:49;9.70;59.50
32173;DHT22;18679;45.190;5.722;2022-12-29T04:39:51;9.80;59.30
32173;DHT22;18679;45.190;5.722;2022-12-29T04:42:52;9.80;59.30
32173;DHT22;18679;45.190;5.722;2022-12-29T04:45:55;9.80;59.30
32173;DHT22;18679;45.190;5.722;2022-12-29T04:49:01;9.80;59.10
32173;DHT22;18679;45.190;5.722;2022-12-29T04:52:41;9.80;59.00
32173;DHT22;18679;45.190;5.722;2022-12-29T04:55:44;9.80;59.00
32173;DHT22;18679;45.190;5.722;2022-12-29T04:58:48;9.80;59.00
32173;DHT22;18679;45.190;5.722;2022-12-29T05:01:49;9.70;59.00
32173;DHT22;18679;45.190;5.722;2022-12-29T05:04:50;9.70;59.10
32173;DHT22;18679;45.190;5.722;2022-12-29T05:07:52;9.70;59.30
32173;DHT22;18679;45.190;5.722;2022-12-29T05:10:53;9.70;59.20
32173;DHT22;18679;45.190;5.722;2022-12-29T05:13:54;9.80;59.20
32173;DHT22;18679;45.190;5.722;2022-12-29T05:16:55;9.80;59.30
32173;DHT22;18679;45.190;5.722;2022-12-29T05:19:57;9.90;59.10
32173;DHT22;18679;45.190;5.722;2022-12-29T05:22:58;9.90;58.80
32173;DHT22;18679;45.190;5.722;2022-12-29T05:26:00;9.90;58.90
32173;DHT22;18679;45.190;5.722;2022-12-29T05:29:21;9.90;58.60
32173;DHT22;18679;45.190;5.722;2022-12-29T05:32:22;9.90;58.50
32173;DHT22;18679;45.190;5.722;2022-12-29T05:35:23;9.90;58.50
32173;DHT22;18679;45.190;5.722;2022-12-29T05:38:24;9.90;58.70
32173;DHT22;18679;45.190;5.722;2022-12-29T05:41:24;9.90;59.50
32173;DHT22;18679;45.190;5.722;2022-12-29T05:44:55;10.00;58.90
32173;DHT22;18679;45.190;5.722;2022-12-29T05:48:09;10.00;58.60
32173;DHT22;18679;45.190;5.722;2022-12-29T05:51:30;10.00;58.50
32173;DHT22;18679;45.190;5.722;2022-12-29T05:54:32;10.10;58.40
32173;DHT22;18679;45.190;5.722;2022-12-29T05:57:33;10.10;58.50
32173;DHT22;18679;45.190;5.722;2022-12-29T06:00:43;10.20;58.60
32173;DHT22;18679;45.190;5.722;2022-12-29T06:03:45;10.20;58.40
32173;DHT22;18679;45.190;5.722;2022-12-29T06:06:45;10.20;58.30
32173;DHT22;18679;45.190;5.722;2022-12-29T06:09:55;10.20;58.40
32173;DHT22;18679;45.190;5.722;2022-12-29T06:12:56;10.30;58.30
32173;DHT22;18679;45.190;5.722;2022-12-29T06:15:57;10.30;58.20
32173;DHT22;18679;45.190;5.722;2022-12-29T06:19:00;10.30;58.00
32173;DHT22;18679;45.190;5.722;2022-12-29T06:22:01;10.30;57.90
32173;DHT22;18679;45.190;5.722;2022-12-29T06:25:03;10.30;57.50
32173;DHT22;18679;45.190;5.722;2022-12-29T06:28:04;10.30;57.50
32173;DHT22;18679;45.190;5.722;2022-12-29T06:31:11;10.30;57.30
32173;DHT22;18679;45.190;5.722;2022-12-29T06:34:12;10.30;57.40
32173;DHT22;18679;45.190;5.722;2022-12-29T06:37:13;10.30;57.40
32173;DHT22;18679;45.190;5.722;2022-12-29T06:40:15;10.40;57.30
32173;DHT22;18679;45.190;5.722;2022-12-29T06:43:44;10.30;57.20
32173;DHT22;18679;45.190;5.722;2022-12-29T06:47:10;10.20;57.00
32173;DHT22;18679;45.190;5.722;2022-12-29T06:50:11;10.20;56.80
32173;DHT22;18679;45.190;5.722;2022-12-29T06:53:11;10.20;56.80
32173;DHT22;18679;45.190;5.722;2022-12-29T06:56:12;10.20;56.50
32173;DHT22;18679;45.190;5.722;2022-12-29T06:59:13;10.30;56.20
32173;DHT22;18679;45.190;5.722;2022-12-29T07:02:14;10.30;55.50
32173;DHT22;18679;45.190;5.722;2022-12-29T07:05:17;10.30;56.10
32173;DHT22;18679;45.190;5.722;2022-12-29T07:08:18;10.30;55.50
32173;DHT22;18679;45.190;5.722;2022-12-29T07:11:18;10.40;55.60
32173;DHT22;18679;45.190;5.722;2022-12-29T07:14:20;10.40;55.70
32173;DHT22;18679;45.190;5.722;2022-12-29T07:17:20;10.30;55.90
32173;DHT22;18679;45.190;5.722;2022-12-29T07:20:21;10.30;56.10
32173;DHT22;18679;45.190;5.722;2022-12-29T07:23:22;10.20;56.30
32173;DHT22;18679;45.190;5.722;2022-12-29T07:26:23;10.20;57.30
32173;DHT22;18679;45.190;5.722;2022-12-29T07:29:24;10.10;57.00
32173;DHT22;18679;45.190;5.722;2022-12-29T07:32:25;10.00;57.20
32173;DHT22;18679;45.190;5.722;2022-12-29T07:35:26;10.10;57.30
32173;DHT22;18679;45.190;5.722;2022-12-29T07:38:27;10.10;57.10
32173;DHT22;18679;45.190;5.722;2022-12-29T07:41:28;10.10;57.00
32173;DHT22;18679;45.190;5.722;2022-12-29T07:44:29;10.10;56.80
32173;DHT22;18679;45.190;5.722;2022-12-29T07:47:35;10.20;56.70
32173;DHT22;18679;45.190;5.722;2022-12-29T07:50:36;10.10;56.70
32173;DHT22;18679;45.190;5.722;2022-12-29T07:53:37;10.10;56.70
32173;DHT22;18679;45.190;5.722;2022-12-29T07:56:38;10.20;56.60
32173;DHT22;18679;45.190;5.722;2022-12-29T07:59:39;10.20;56.60
32173;DHT22;18679;45.190;5.722;2022-12-29T08:02:39;10.20;56.50
32173;DHT22;18679;45.190;5.722;2022-12-29T08:05:40;10.30;56.40
32173;DHT22;18679;45.190;5.722;2022-12-29T08:08:41;10.30;56.00
32173;DHT22;18679;45.190;5.722;2022-12-29T08:11:42;10.40;55.80
32173;DHT22;18679;45.190;5.722;2022-12-29T08:14:43;10.40;55.50
32173;DHT22;18679;45.190;5.722;2022-12-29T08:17:44;10.40;55.40
32173;DHT22;18679;45.190;5.722;2022-12-29T08:20:45;10.50;54.70
32173;DHT22;18679;45.190;5.722;2022-12-29T08:23:47;10.50;54.50
32173;DHT22;18679;45.190;5.722;2022-12-29T08:26:48;10.60;54.00
32173;DHT22;18679;45.190;5.722;2022-12-29T08:29:49;10.70;53.90
32173;DHT22;18679;45.190;5.722;2022-12-29T08:32:50;10.80;53.70
32173;DHT22;18679;45.190;5.722;2022-12-29T08:35:51;10.90;53.60
32173;DHT22;18679;45.190;5.722;2022-12-29T08:38:52;11.00;53.60
32173;DHT22;18679;45.190;5.722;2022-12-29T08:41:52;11.10;53.30
32173;DHT22;18679;45.190;5.722;2022-12-29T08:44:54;11.30;53.10
32173;DHT22;18679;45.190;5.722;2022-12-29T08:47:55;11.40;52.80
32173;DHT22;18679;45.190;5.722;2022-12-29T08:50:56;11.50;52.60
32173;DHT22;18679;45.190;5.722;2022-12-29T08:53:57;11.60;52.20
32173;DHT22;18679;45.190;5.722;2022-12-29T08:56:58;11.60;52.10
32173;DHT22;18679;45.190;5.722;2022-12-29T09:00:07;11.70;51.90
32173;DHT22;18679;45.190;5.722;2022-12-29T09:03:08;11.60;52.00
32173;DHT22;18679;45.190;5.722;2022-12-29T09:06:09;11.70;52.20
32173;DHT22;18679;45.190;5.722;2022-12-29T09:09:10;11.70;51.90
32173;DHT22;18679;45.190;5.722;2022-12-29T09:12:11;11.60;51.80
32173;DHT22;18679;45.190;5.722;2022-12-29T09:15:12;11.60;52.00
32173;DHT22;18679;45.190;5.722;2022-12-29T09:18:13;11.60;52.30
32173;DHT22;18679;45.190;5.722;2022-12-29T09:21:14;11.60;52.40
32173;DHT22;18679;45.190;5.722;2022-12-29T09:24:15;11.70;52.40
32173;DHT22;18679;45.190;5.722;2022-12-29T09:27:16;11.70;52.10
32173;DHT22;18679;45.190;5.722;2022-12-29T09:30:17;11.70;52.00
32173;DHT22;18679;45.190;5.722;2022-12-29T09:33:18;11.70;52.10
32173;DHT22;18679;45.190;5.722;2022-12-29T09:36:19;11.70;52.20
32173;DHT22;18679;45.190;5.722;2022-12-29T09:39:20;11.70;51.90
32173;DHT22;18679;45.190;5.722;2022-12-29T09:42:29;11.70;51.80
32173;DHT22;18679;45.190;5.722;2022-12-29T09:45:42;11.70;51.30
32173;DHT22;18679;45.190;5.722;2022-12-29T09:48:50;11.70;51.50
32173;DHT22;18679;45.190;5.722;2022-12-29T09:51:57;11.70;51.70
32173;DHT22;18679;45.190;5.722;2022-12-29T09:55:19;11.70;51.70
32173;DHT22;18679;45.190;5.722;2022-12-29T09:58:35;11.70;51.80
32173;DHT22;18679;45.190;5.722;2022-12-29T10:02:11;11.70;52.00
32173;DHT22;18679;45.190;5.722;2022-12-29T10:22:07;13.20;51.40
32173;DHT22;18679;45.190;5.722;2022-12-29T10:25:20;13.20;50.90
32173;DHT22;18679;45.190;5.722;2022-12-29T10:28:24;13.20;50.80
32173;DHT22;18679;45.190;5.722;2022-12-29T10:31:44;13.10;50.90
32173;DHT22;18679;45.190;5.722;2022-12-29T10:34:51;13.00;50.40
32173;DHT22;18679;45.190;5.722;2022-12-29T10:41:13;13.00;50.80
32173;DHT22;18679;45.190;5.722;2022-12-29T10:44:16;13.00;50.50
32173;DHT22;18679;45.190;5.722;2022-12-29T10:47:23;13.10;49.60
32173;DHT22;18679;45.190;5.722;2022-12-29T10:50:25;13.20;49.40
32173;DHT22;18679;45.190;5.722;2022-12-29T10:53:38;13.60;48.80
32173;DHT22;18679;45.190;5.722;2022-12-29T10:56:44;14.00;48.30
32173;DHT22;18679;45.190;5.722;2022-12-29T10:59:46;14.40;47.90
32173;DHT22;18679;45.190;5.722;2022-12-29T11:06:18;15.40;46.70
32173;DHT22;18679;45.190;5.722;2022-12-29T11:09:27;15.80;45.20
32173;DHT22;18679;45.190;5.722;2022-12-29T11:12:30;16.10;45.00
32173;DHT22;18679;45.190;5.722;2022-12-29T11:15:44;16.50;43.80
32173;DHT22;18679;45.190;5.722;2022-12-29T11:18:46;16.40;43.90
32173;DHT22;18679;45.190;5.722;2022-12-29T11:21:47;16.40;44.00
32173;DHT22;18679;45.190;5.722;2022-12-29T11:24:49;16.80;43.70
32173;DHT22;18679;45.190;5.722;2022-12-29T11:31:04;17.70;41.80
32173;DHT22;18679;45.190;5.722;2022-12-29T11:34:06;18.00;41.20
32173;DHT22;18679;45.190;5.722;2022-12-29T11:37:27;18.20;41.10
32173;DHT22;18679;45.190;5.722;2022-12-29T11:40:28;18.60;40.90
32173;DHT22;18679;45.190;5.722;2022-12-29T11:43:33;19.00;40.60
32173;DHT22;18679;45.190;5.722;2022-12-29T11:46:36;19.00;40.60
32173;DHT22;18679;45.190;5.722;2022-12-29T11:49:38;18.90;41.20
32173;DHT22;18679;45.190;5.722;2022-12-29T11:52:39;18.70;41.50
32173;DHT22;18679;45.190;5.722;2022-12-29T11:55:41;18.40;41.80
32173;DHT22;18679;45.190;5.722;2022-12-29T11:58:51;18.20;42.20
32173;DHT22;18679;45.190;5.722;2022-12-29T12:01:54;18.00;42.60
32173;DHT22;18679;45.190;5.722;2022-12-29T12:05:21;17.70;42.40
32173;DHT22;18679;45.190;5.722;2022-12-29T12:11:38;17.10;42.80
32173;DHT22;18679;45.190;5.722;2022-12-29T12:14:50;16.90;43.10
32173;DHT22;18679;45.190;5.722;2022-12-29T12:18:10;16.80;43.00
32173;DHT22;18679;45.190;5.722;2022-12-29T12:21:27;16.70;43.40
32173;DHT22;18679;45.190;5.722;2022-12-29T12:27:43;16.70;44.00
32173;DHT22;18679;45.190;5.722;2022-12-29T12:30:52;16.70;44.10
32173;DHT22;18679;45.190;5.722;2022-12-29T12:33:58;16.80;44.90
32173;DHT22;18679;45.190;5.722;2022-12-29T12:37:40;16.80;45.00
32173;DHT22;18679;45.190;5.722;2022-12-29T12:41:11;16.80;44.30
32173;DHT22;18679;45.190;5.722;2022-12-29T13:01:05;17.00;44.30
32173;DHT22;18679;45.190;5.722;2022-12-29T13:37:18;17.50;43.70
32173;DHT22;18679;45.190;5.722;2022-12-29T13:40:28;17.50;43.50
32173;DHT22;18679;45.190;5.722;2022-12-29T13:43:31;17.40;43.60
32173;DHT22;18679;45.190;5.722;2022-12-29T13:46:42;17.40;43.70
32173;DHT22;18679;45.190;5.722;2022-12-29T13:49:44;17.40;43.80
32173;DHT22;18679;45.190;5.722;2022-12-29T13:53:03;17.40;43.70
32173;DHT22;18679;45.190;5.722;2022-12-29T13:56:24;17.40;43.90
32173;DHT22;18679;45.190;5.722;2022-12-29T13:59:44;17.40;44.10
32173;DHT22;18679;45.190;5.722;2022-12-29T14:09:50;17.40;44.10
32173;DHT22;18679;45.190;5.722;2022-12-29T14:13:00;17.50;44.20
32173;DHT22;18679;45.190;5.722;2022-12-29T14:16:03;17.50;44.20
32173;DHT22;18679;45.190;5.722;2022-12-29T14:19:18;17.40;44.20
32173;DHT22;18679;45.190;5.722;2022-12-29T14:22:24;17.40;44.40
32173;DHT22;18679;45.190;5.722;2022-12-29T14:35:43;17.30;44.40
32173;DHT22;18679;45.190;5.722;2022-12-29T14:38:45;17.30;44.40
32173;DHT22;18679;45.190;5.722;2022-12-29T14:41:46;17.20;44.50
32173;DHT22;18679;45.190;5.722;2022-12-29T14:47:52;17.10;44.80
32173;DHT22;18679;45.190;5.722;2022-12-29T14:50:54;17.00;44.90
32173;DHT22;18679;45.190;5.722;2022-12-29T14:53:55;17.00;45.00
32173;DHT22;18679;45.190;5.722;2022-12-29T14:56:59;17.00;45.20
32173;DHT22;18679;45.190;5.722;2022-12-29T15:00:15;16.90;45.30
32173;DHT22;18679;45.190;5.722;2022-12-29T15:03:21;16.90;45.30
32173;DHT22;18679;45.190;5.722;2022-12-29T15:06:25;16.90;45.50
32173;DHT22;18679;45.190;5.722;2022-12-29T15:09:37;16.90;45.50
32173;DHT22;18679;45.190;5.722;2022-12-29T15:12:47;16.90;45.70
32173;DHT22;18679;45.190;5.722;2022-12-29T15:15:52;16.80;46.40
32173;DHT22;18679;45.190;5.722;2022-12-29T15:18:54;16.80;46.60
32173;DHT22;18679;45.190;5.722;2022-12-29T15:21:55;16.80;47.50
32173;DHT22;18679;45.190;5.722;2022-12-29T15:24:58;16.70;47.80
32173;DHT22;18679;45.190;5.722;2022-12-29T15:28:04;16.70;47.70
32173;DHT22;18679;45.190;5.722;2022-12-29T15:34:20;16.50;47.30
32173;DHT22;18679;45.190;5.722;2022-12-29T15:37:42;16.50;47.40
32173;DHT22;18679;45.190;5.722;2022-12-29T15:40:44;16.40;47.40
32173;DHT22;18679;45.190;5.722;2022-12-29T15:53:28;16.40;47.40
32173;DHT22;18679;45.190;5.722;2022-12-29T15:56:31;16.40;47.40
32173;DHT22;18679;45.190;5.722;2022-12-29T15:59:33;16.40;47.50
32173;DHT22;18679;45.190;5.722;2022-12-29T16:02:34;16.40;47.50
32173;DHT22;18679;45.190;5.722;2022-12-29T16:05:38;16.40;47.50
32173;DHT22;18679;45.190;5.722;2022-12-29T16:08:40;16.30;47.60
32173;DHT22;18679;45.190;5.722;2022-12-29T16:15:07;16.20;47.90
32173;DHT22;18679;45.190;5.722;2022-12-29T16:18:23;16.20;48.00
32173;DHT22;18679;45.190;5.722;2022-12-29T16:21:28;16.20;48.20
32173;DHT22;18679;45.190;5.722;2022-12-29T16:24:32;16.10;48.20
32173;DHT22;18679;45.190;5.722;2022-12-29T16:27:40;16.10;48.40
32173;DHT22;18679;45.190;5.722;2022-12-29T16:30:41;16.00;48.50
32173;DHT22;18679;45.190;5.722;2022-12-29T16:33:55;16.00;48.50
32173;DHT22;18679;45.190;5.722;2022-12-29T16:43:29;16.00;48.70
32173;DHT22;18679;45.190;5.722;2022-12-29T16:46:31;15.90;48.80
32173;DHT22;18679;45.190;5.722;2022-12-29T16:49:34;15.90;48.80
32173;DHT22;18679;45.190;5.722;2022-12-29T16:52:35;15.90;48.90
32173;DHT22;18679;45.190;5.722;2022-12-29T16:55:37;15.90;49.10
32173;DHT22;18679;45.190;5.722;2022-12-29T16:58:38;15.90;49.30
32173;DHT22;18679;45.190;5.722;2022-12-29T17:01:39;15.90;49.40
32173;DHT22;18679;45.190;5.722;2022-12-29T17:04:40;15.90;49.50
32173;DHT22;18679;45.190;5.722;2022-12-29T17:07:41;15.90;49.70
32173;DHT22;18679;45.190;5.722;2022-12-29T17:10:42;15.90;49.80
32173;DHT22;18679;45.190;5.722;2022-12-29T17:14:01;15.90;49.90
32173;DHT22;18679;45.190;5.722;2022-12-29T17:17:04;15.80;50.10
32173;DHT22;18679;45.190;5.722;2022-12-29T17:20:27;15.90;50.30
32173;DHT22;18679;45.190;5.722;2022-12-29T17:23:31;15.90;50.40
32173;DHT22;18679;45.190;5.722;2022-12-29T17:26:33;15.90;50.40
32173;DHT22;18679;45.190;5.722;2022-12-29T17:29:39;15.80;51.00
32173;DHT22;18679;45.190;5.722;2022-12-29T17:32:40;15.90;50.40
32173;DHT22;18679;45.190;5.722;2022-12-29T17:35:42;15.90;50.50
32173;DHT22;18679;45.190;5.722;2022-12-29T17:38:43;15.90;50.50
32173;DHT22;18679;45.190;5.722;2022-12-29T17:41:45;15.80;50.40
32173;DHT22;18679;45.190;5.722;2022-12-29T17:44:46;15.80;50.40
32173;DHT22;18679;45.190;5.722;2022-12-29T17:47:47;15.80;50.60
32173;DHT22;18679;45.190;5.722;2022-12-29T17:50:50;15.80;50.80
32173;DHT22;18679;45.190;5.722;2022-12-29T17:53:52;15.70;51.00
32173;DHT22;18679;45.190;5.722;2022-12-29T17:56:53;15.70;51.10
32173;DHT22;18679;45.190;5.722;2022-12-29T17:59:53;15.70;51.10
32173;DHT22;18679;45.190;5.722;2022-12-29T18:02:55;15.60;51.10
32173;DHT22;18679;45.190;5.722;2022-12-29T18:05:56;15.60;51.30
32173;DHT22;18679;45.190;5.722;2022-12-29T18:08:57;15.60;51.70
32173;DHT22;18679;45.190;5.722;2022-12-29T18:11:58;15.60;51.90
32173;DHT22;18679;45.190;5.722;2022-12-29T18:14:59;15.70;52.00
32173;DHT22;18679;45.190;5.722;2022-12-29T18:18:09;15.70;52.00
32173;DHT22;18679;45.190;5.722;2022-12-29T18:21:16;15.60;52.00
32173;DHT22;18679;45.190;5.722;2022-12-29T18:24:18;15.60;52.10
32173;DHT22;18679;45.190;5.722;2022-12-29T18:27:18;15.60;52.10
32173;DHT22;18679;45.190;5.722;2022-12-29T18:30:21;15.60;52.10
32173;DHT22;18679;45.190;5.722;2022-12-29T18:33:22;15.70;52.20
32173;DHT22;18679;45.190;5.722;2022-12-29T18:36:24;15.70;52.20
32173;DHT22;18679;45.190;5.722;2022-12-29T18:39:24;15.70;52.20
32173;DHT22;18679;45.190;5.722;2022-12-29T18:42:25;15.70;52.20
32173;DHT22;18679;45.190;5.722;2022-12-29T18:45:27;15.70;52.30
32173;DHT22;18679;45.190;5.722;2022-12-29T18:48:29;15.70;52.40
32173;DHT22;18679;45.190;5.722;2022-12-29T18:51:30;15.70;52.40
32173;DHT22;18679;45.190;5.722;2022-12-29T18:54:32;15.60;52.40
32173;DHT22;18679;45.190;5.722;2022-12-29T18:57:33;15.60;52.50
32173;DHT22;18679;45.190;5.722;2022-12-29T19:00:34;15.50;52.50
32173;DHT22;18679;45.190;5.722;2022-12-29T19:03:35;15.50;52.60
32173;DHT22;18679;45.190;5.722;2022-12-29T19:06:35;15.40;52.70
32173;DHT22;18679;45.190;5.722;2022-12-29T19:09:37;15.40;52.80
32173;DHT22;18679;45.190;5.722;2022-12-29T19:12:38;15.40;52.80
32173;DHT22;18679;45.190;5.722;2022-12-29T19:15:39;15.40;53.00
32173;DHT22;18679;45.190;5.722;2022-12-29T19:18:39;15.40;53.10
32173;DHT22;18679;45.190;5.722;2022-12-29T19:21:40;15.30;53.50
32173;DHT22;18679;45.190;5.722;2022-12-29T19:24:41;15.30;54.40
32173;DHT22;18679;45.190;5.722;2022-12-29T19:27:42;15.30;55.10
32173;DHT22;18679;45.190;5.722;2022-12-29T19:30:44;15.30;55.70
32173;DHT22;18679;45.190;5.722;2022-12-29T19:33:45;15.40;56.60
32173;DHT22;18679;45.190;5.722;2022-12-29T19:36:45;15.40;57.30
32173;DHT22;18679;45.190;5.722;2022-12-29T19:39:46;15.40;57.60
32173;DHT22;18679;45.190;5.722;2022-12-29T19:42:48;15.40;58.30
32173;DHT22;18679;45.190;5.722;2022-12-29T19:45:50;15.40;58.40
32173;DHT22;18679;45.190;5.722;2022-12-29T19:48:52;15.60;58.80
32173;DHT22;18679;45.190;5.722;2022-12-29T19:51:54;15.40;58.90
32173;DHT22;18679;45.190;5.722;2022-12-29T19:54:55;15.40;59.10
32173;DHT22;18679;45.190;5.722;2022-12-29T19:57:56;15.50;59.30
32173;DHT22;18679;45.190;5.722;2022-12-29T20:01:23;15.50;59.60
32173;DHT22;18679;45.190;5.722;2022-12-29T20:04:23;15.50;60.10
32173;DHT22;18679;45.190;5.722;2022-12-29T20:07:25;15.50;60.40
32173;DHT22;18679;45.190;5.722;2022-12-29T20:10:26;15.50;60.60
32173;DHT22;18679;45.190;5.722;2022-12-29T20:13:27;15.50;60.60
32173;DHT22;18679;45.190;5.722;2022-12-29T20:16:28;15.50;60.50
32173;DHT22;18679;45.190;5.722;2022-12-29T20:19:33;15.50;60.50
32173;DHT22;18679;45.190;5.722;2022-12-29T20:22:34;15.50;59.80
32173;DHT22;18679;45.190;5.722;2022-12-29T20:25:35;15.40;59.20
32173;DHT22;18679;45.190;5.722;2022-12-29T20:28:36;15.40;58.90
32173;DHT22;18679;45.190;5.722;2022-12-29T20:31:37;15.30;58.60
32173;DHT22;18679;45.190;5.722;2022-12-29T20:34:38;15.20;58.30
32173;DHT22;18679;45.190;5.722;2022-12-29T20:37:39;15.10;58.20
32173;DHT22;18679;45.190;5.722;2022-12-29T20:40:40;15.10;58.30
32173;DHT22;18679;45.190;5.722;2022-12-29T20:43:42;15.00;58.30
32173;DHT22;18679;45.190;5.722;2022-12-29T20:46:43;14.90;58.40
32173;DHT22;18679;45.190;5.722;2022-12-29T20:49:44;14.80;58.40
32173;DHT22;18679;45.190;5.722;2022-12-29T20:52:45;14.70;58.50
32173;DHT22;18679;45.190;5.722;2022-12-29T20:55:46;14.70;58.70
32173;DHT22;18679;45.190;5.722;2022-12-29T20:58:48;14.60;58.60
32173;DHT22;18679;45.190;5.722;2022-12-29T21:01:49;14.60;58.40
32173;DHT22;18679;45.190;5.722;2022-12-29T21:04:50;14.50;58.10
32173;DHT22;18679;45.190;5.722;2022-12-29T21:07:52;14.50;58.00
32173;DHT22;18679;45.190;5.722;2022-12-29T21:10:53;14.40;57.90
32173;DHT22;18679;45.190;5.722;2022-12-29T21:13:54;14.40;57.70
32173;DHT22;18679;45.190;5.722;2022-12-29T21:16:55;14.40;57.60
32173;DHT22;18679;45.190;5.722;2022-12-29T21:19:56;14.40;57.50
32173;DHT22;18679;45.190;5.722;2022-12-29T21:22:58;14.30;57.50
32173;DHT22;18679;45.190;5.722;2022-12-29T21:26:00;14.30;57.50
32173;DHT22;18679;45.190;5.722;2022-12-29T21:29:01;14.30;57.40
32173;DHT22;18679;45.190;5.722;2022-12-29T21:32:03;14.30;57.30
32173;DHT22;18679;45.190;5.722;2022-12-29T21:35:04;14.20;57.10
32173;DHT22;18679;45.190;5.722;2022-12-29T21:38:06;14.20;57.10
32173;DHT22;18679;45.190;5.722;2022-12-29T21:41:09;14.20;57.00
32173;DHT22;18679;45.190;5.722;2022-12-29T21:44:10;14.20;57.00
32173;DHT22;18679;45.190;5.722;2022-12-29T21:47:32;14.20;57.00
32173;DHT22;18679;45.190;5.722;2022-12-29T21:51:04;14.20;56.90
32173;DHT22;18679;45.190;5.722;2022-12-29T21:54:26;14.20;56.80
32173;DHT22;18679;45.190;5.722;2022-12-29T21:57:46;14.10;56.80
32173;DHT22;18679;45.190;5.722;2022-12-29T22:01:27;14.10;56.80
32173;DHT22;18679;45.190;5.722;2022-12-29T22:04:48;14.10;56.80
32173;DHT22;18679;45.190;5.722;2022-12-29T22:08:07;14.10;56.90
32173;DHT22;18679;45.190;5.722;2022-12-29T22:11:27;14.10;56.90
32173;DHT22;18679;45.190;5.722;2022-12-29T22:14:46;14.10;56.90
32173;DHT22;18679;45.190;5.722;2022-12-29T22:17:50;14.10;56.70
32173;DHT22;18679;45.190;5.722;2022-12-29T22:20:52;14.10;56.90
32173;DHT22;18679;45.190;5.722;2022-12-29T22:23:53;14.00;57.00
32173;DHT22;18679;45.190;5.722;2022-12-29T22:26:54;14.00;57.10